createdAt,value
2019-04-30T00:00:55.385Z,95.40
2019-04-30T00:03:40.935Z,95.40
2019-04-30T00:06:09.444Z,95.50
2019-04-30T00:08:39.061Z,95.60
2019-04-30T00:11:10.914Z,95.70
2019-04-30T00:13:37.927Z,95.80
2019-04-30T00:16:06.391Z,96.00
2019-04-30T00:18:38.242Z,96.10
2019-04-30T00:21:05.437Z,96.30
2019-04-30T00:23:35.837Z,96.30
2019-04-30T00:26:08.690Z,96.40
2019-04-30T00:28:35.395Z,96.40
2019-04-30T00:31:05.517Z,96.50
2019-04-30T00:33:35.379Z,96.60
2019-04-30T00:36:05.021Z,96.70
2019-04-30T00:38:37.734Z,97.00
2019-04-30T00:41:06.839Z,97.10
2019-04-30T00:43:35.378Z,97.70
2019-04-30T00:46:05.125Z,97.50
2019-04-30T00:48:35.554Z,97.60
2019-04-30T00:51:07.590Z,97.70
2019-04-30T00:53:35.789Z,97.80
2019-04-30T00:56:26.920Z,98.20
2019-04-30T00:58:57.446Z,98.10
2019-04-30T01:01:25.727Z,98.60
2019-04-30T01:04:10.523Z,98.40
2019-04-30T01:06:39.331Z,98.60
2019-04-30T01:09:08.685Z,98.70
2019-04-30T01:11:39.866Z,98.90
2019-04-30T01:14:07.607Z,99.10
2019-04-30T01:16:36.052Z,99.10
2019-04-30T01:19:05.779Z,99.00
2019-04-30T01:21:34.992Z,99.10
2019-04-30T01:24:03.505Z,99.10
2019-04-30T01:26:32.201Z,99.10
2019-04-30T01:31:58.597Z,99.20
2019-04-30T01:34:27.196Z,99.10
2019-04-30T01:36:55.628Z,99.20
2019-04-30T01:39:28.482Z,99.20
2019-04-30T01:41:54.209Z,99.30
2019-04-30T01:44:22.649Z,99.50
2019-04-30T01:46:51.777Z,99.70
2019-04-30T01:49:25.701Z,99.90
2019-04-30T01:51:52.890Z,99.90
2019-04-30T01:54:24.053Z,99.90
2019-04-30T01:57:10.721Z,99.90
2019-04-30T01:59:58.295Z,99.90
2019-04-30T02:02:28.656Z,99.90
2019-04-30T02:04:59.039Z,99.90
2019-04-30T02:07:28.775Z,99.90
2019-04-30T02:09:58.763Z,99.90
2019-04-30T02:12:29.527Z,99.90
2019-04-30T02:14:59.496Z,99.90
2019-04-30T02:17:29.289Z,99.90
2019-04-30T02:19:59.374Z,99.90
2019-04-30T02:22:30.897Z,99.90
2019-04-30T02:24:58.634Z,99.90
2019-04-30T02:27:29.413Z,99.90
2019-04-30T02:30:02.025Z,99.90
2019-04-30T02:32:30.385Z,99.90
2019-04-30T02:35:02.318Z,99.90
2019-04-30T02:37:32.384Z,99.90
2019-04-30T02:40:01.098Z,99.90
2019-04-30T02:42:30.954Z,99.90
2019-04-30T02:45:03.853Z,99.90
2019-04-30T02:47:35.277Z,99.90
2019-04-30T02:50:15.647Z,99.90
2019-04-30T02:52:40.193Z,99.90
2019-04-30T02:55:11.557Z,99.90
2019-04-30T02:57:40.206Z,99.90
2019-04-30T03:00:10.701Z,99.90
2019-04-30T03:02:39.561Z,99.90
2019-04-30T03:05:12.943Z,99.90
2019-04-30T03:07:40.915Z,99.90
2019-04-30T03:10:10.307Z,99.90
2019-04-30T03:12:40.516Z,99.90
2019-04-30T03:15:10.010Z,99.90
2019-04-30T03:17:46.227Z,99.90
2019-04-30T03:20:32.646Z,99.90
2019-04-30T03:22:55.378Z,99.90
2019-04-30T03:25:24.379Z,99.90
2019-04-30T03:27:52.823Z,99.90
2019-04-30T03:30:22.191Z,99.90
2019-04-30T03:32:56.624Z,99.90
2019-04-30T03:35:22.834Z,99.90
2019-04-30T03:37:51.164Z,99.90
2019-04-30T03:40:20.211Z,99.90
2019-04-30T03:42:49.418Z,99.90
2019-04-30T03:45:20.448Z,99.90
2019-04-30T03:47:50.460Z,99.90
2019-04-30T03:50:19.836Z,99.90
2019-04-30T03:52:50.399Z,99.90
2019-04-30T03:55:20.901Z,99.90
2019-04-30T03:57:51.688Z,99.90
2019-04-30T04:00:20.887Z,99.90
2019-04-30T04:02:50.145Z,99.90
2019-04-30T04:05:26.305Z,99.90
2019-04-30T04:07:59.845Z,99.90
2019-04-30T04:10:33.200Z,99.90
2019-04-30T04:13:01.697Z,99.90
2019-04-30T04:15:30.123Z,99.90
2019-04-30T04:18:00.361Z,99.90
2019-04-30T04:20:29.877Z,99.90
2019-04-30T04:22:59.877Z,99.90
2019-04-30T04:25:29.951Z,99.90
2019-04-30T04:28:00.450Z,99.90
2019-04-30T04:30:29.710Z,99.90
2019-04-30T04:32:59.950Z,99.90
2019-04-30T04:35:29.907Z,99.90
2019-04-30T04:38:00.355Z,99.90
2019-04-30T04:40:30.249Z,99.90
2019-04-30T04:43:00.285Z,99.90
2019-04-30T04:45:30.525Z,99.90
2019-04-30T04:48:00.230Z,99.90
2019-04-30T04:50:30.194Z,99.90
2019-04-30T04:52:59.545Z,99.90
2019-04-30T04:55:29.894Z,99.90
2019-04-30T04:57:59.842Z,99.90
2019-04-30T05:00:29.395Z,99.90
2019-04-30T05:03:05.721Z,99.90
2019-04-30T05:05:53.750Z,99.90
2019-04-30T05:08:22.165Z,99.90
2019-04-30T05:10:50.605Z,99.90
2019-04-30T05:13:19.292Z,99.90
2019-04-30T05:15:51.226Z,99.90
2019-04-30T05:18:19.138Z,99.90
2019-04-30T05:20:49.070Z,99.90
2019-04-30T05:23:19.542Z,99.90
2019-04-30T05:25:49.104Z,99.90
2019-04-30T05:28:18.948Z,99.90
2019-04-30T05:30:49.404Z,99.90
2019-04-30T05:33:18.628Z,99.90
2019-04-30T05:35:47.257Z,99.90
2019-04-30T05:38:15.697Z,99.90
2019-04-30T05:40:44.117Z,99.90
2019-04-30T05:43:31.898Z,99.90
2019-04-30T05:46:00.316Z,99.90
2019-04-30T05:48:28.828Z,99.90
2019-04-30T05:50:59.110Z,99.90
2019-04-30T05:53:28.701Z,99.90
2019-04-30T05:55:59.177Z,99.90
2019-04-30T05:58:29.780Z,99.90
2019-04-30T06:00:59.627Z,99.90
2019-04-30T06:03:32.901Z,99.90
2019-04-30T06:05:58.929Z,99.90
2019-04-30T06:08:29.308Z,99.80
2019-04-30T06:11:11.346Z,99.70
2019-04-30T06:13:56.470Z,99.70
2019-04-30T06:16:26.528Z,99.50
2019-04-30T06:18:54.955Z,99.20
2019-04-30T06:21:23.414Z,99.20
2019-04-30T06:23:51.916Z,99.30
2019-04-30T06:26:20.833Z,99.40
2019-04-30T06:28:49.730Z,99.30
2019-04-30T06:31:22.282Z,99.10
2019-04-30T06:33:48.795Z,98.90
2019-04-30T06:36:19.064Z,98.80
2019-04-30T06:38:48.888Z,98.50
2019-04-30T06:41:19.692Z,98.80
2019-04-30T06:43:48.837Z,98.30
2019-04-30T06:46:18.732Z,98.40
2019-04-30T06:48:50.835Z,98.10
2019-04-30T06:51:18.939Z,98.20
2019-04-30T06:53:49.568Z,98.10
2019-04-30T06:56:18.957Z,97.70
2019-04-30T06:58:49.358Z,97.70
2019-04-30T07:01:19.104Z,97.90
2019-04-30T07:03:48.757Z,97.80
2019-04-30T07:06:27.540Z,97.80
2019-04-30T07:08:59.638Z,97.60
2019-04-30T07:11:32.578Z,97.60
2019-04-30T07:14:01.012Z,97.30
2019-04-30T07:16:29.955Z,97.10
2019-04-30T07:18:58.723Z,96.90
2019-04-30T07:21:31.353Z,96.70
2019-04-30T07:23:59.553Z,96.70
2019-04-30T07:26:28.960Z,96.70
2019-04-30T07:29:01.912Z,96.70
2019-04-30T07:31:29.581Z,96.70
2019-04-30T07:33:59.491Z,96.30
2019-04-30T07:36:43.435Z,96.00
2019-04-30T07:38:59.864Z,95.80
2019-04-30T07:41:30.877Z,95.80
2019-04-30T07:43:59.319Z,95.80
2019-04-30T07:46:29.795Z,95.60
2019-04-30T07:49:00.036Z,95.80
2019-04-30T07:51:32.173Z,95.90
2019-04-30T07:53:59.024Z,95.90
2019-04-30T07:56:31.680Z,95.70
2019-04-30T07:59:00.764Z,95.70
2019-04-30T08:01:29.499Z,95.60
2019-04-30T08:04:05.565Z,95.60
2019-04-30T08:06:34.142Z,95.50
2019-04-30T08:09:02.809Z,95.50
2019-04-30T08:11:34.526Z,95.50
2019-04-30T08:14:01.858Z,95.20
2019-04-30T08:16:31.077Z,95.20
2019-04-30T08:18:59.513Z,95.00
2019-04-30T08:21:28.759Z,95.10
2019-04-30T08:23:59.330Z,95.30
2019-04-30T08:26:28.644Z,95.50
2019-04-30T08:28:57.314Z,95.60
2019-04-30T08:31:25.726Z,95.50
2019-04-30T08:33:54.317Z,95.20
2019-04-30T08:36:22.753Z,94.80
2019-04-30T08:38:51.198Z,95.00
2019-04-30T08:41:19.638Z,94.70
2019-04-30T08:43:49.670Z,94.60
2019-04-30T08:46:19.027Z,94.80
2019-04-30T08:48:51.560Z,94.70
2019-04-30T08:51:19.118Z,94.30
2019-04-30T08:53:48.667Z,94.20
2019-04-30T08:56:21.718Z,93.90
2019-04-30T08:58:49.075Z,93.70
2019-04-30T09:01:19.603Z,93.20
2019-04-30T09:03:50.938Z,93.40
2019-04-30T09:06:19.802Z,93.40
2019-04-30T09:08:49.104Z,93.40
2019-04-30T09:11:25.047Z,93.00
2019-04-30T09:13:48.794Z,92.80
2019-04-30T09:16:19.369Z,92.50
2019-04-30T09:18:49.436Z,92.00
2019-04-30T09:21:18.687Z,92.00
2019-04-30T09:23:51.957Z,92.20
2019-04-30T09:26:18.737Z,92.20
2019-04-30T09:28:49.255Z,92.20
2019-04-30T09:31:17.391Z,92.20
2019-04-30T09:33:45.823Z,92.40
2019-04-30T09:36:14.247Z,92.50
2019-04-30T09:38:42.683Z,92.60
2019-04-30T09:41:11.115Z,92.70
2019-04-30T09:43:40.505Z,92.90
2019-04-30T09:46:17.895Z,92.80
2019-04-30T09:48:39.304Z,92.90
2019-04-30T09:51:10.391Z,92.90
2019-04-30T09:53:39.418Z,92.70
2019-04-30T09:56:09.574Z,92.40
2019-04-30T09:58:39.335Z,92.30
2019-04-30T10:01:09.424Z,92.30
2019-04-30T10:03:39.144Z,92.20
2019-04-30T10:06:12.488Z,92.10
2019-04-30T10:08:48.425Z,92.00
2019-04-30T10:11:12.812Z,92.10
2019-04-30T10:13:41.231Z,91.90
2019-04-30T10:16:23.452Z,91.80
2019-04-30T10:18:51.876Z,92.20
2019-04-30T10:21:32.253Z,92.30
2019-04-30T10:24:12.289Z,92.40
2019-04-30T10:26:30.848Z,92.20
2019-04-30T10:29:00.575Z,92.20
2019-04-30T10:31:29.393Z,92.20
2019-04-30T10:33:58.631Z,92.40
2019-04-30T10:36:29.421Z,92.40
2019-04-30T10:38:59.368Z,92.50
2019-04-30T10:41:28.762Z,92.50
2019-04-30T10:43:59.126Z,92.80
2019-04-30T10:46:27.809Z,92.90
2019-04-30T10:48:56.577Z,93.10
2019-04-30T10:51:25.065Z,93.20
2019-04-30T10:53:53.506Z,93.00
2019-04-30T10:56:22.226Z,92.90
2019-04-30T10:58:50.661Z,93.00
2019-04-30T11:01:19.318Z,92.80
2019-04-30T11:03:48.066Z,92.80
2019-04-30T11:06:16.489Z,92.80
2019-04-30T11:08:44.943Z,92.80
2019-04-30T11:11:13.349Z,92.80
2019-04-30T11:13:41.786Z,92.60
2019-04-30T11:16:14.719Z,92.30
2019-04-30T11:18:40.788Z,92.40
2019-04-30T11:21:10.006Z,92.50
2019-04-30T11:23:39.609Z,92.00
2019-04-30T11:26:08.907Z,92.10
2019-04-30T11:28:37.936Z,92.20
2019-04-30T11:31:26.938Z,92.40
2019-04-30T11:34:00.202Z,92.30
2019-04-30T11:36:29.177Z,92.30
2019-04-30T11:38:58.665Z,92.50
2019-04-30T11:41:30.870Z,92.30
2019-04-30T11:43:59.332Z,92.50
2019-04-30T11:46:38.374Z,92.10
2019-04-30T11:49:06.714Z,92.30
2019-04-30T11:51:35.135Z,92.40
2019-04-30T11:54:04.015Z,92.50
2019-04-30T11:56:32.494Z,92.40
2019-04-30T11:59:00.927Z,92.50
2019-04-30T12:01:31.274Z,92.60
2019-04-30T12:03:59.966Z,92.70
2019-04-30T12:06:28.587Z,92.70
2019-04-30T12:09:01.828Z,92.70
2019-04-30T12:11:37.896Z,92.40
2019-04-30T12:14:06.571Z,92.10
2019-04-30T12:16:35.016Z,91.90
2019-04-30T12:19:03.527Z,91.90
2019-04-30T12:21:31.963Z,91.50
2019-04-30T12:24:00.383Z,91.30
2019-04-30T12:26:28.985Z,91.20
2019-04-30T12:28:57.539Z,91.20
2019-04-30T12:31:25.975Z,91.10
2019-04-30T12:33:54.396Z,90.90
2019-04-30T12:36:22.832Z,91.00
2019-04-30T12:38:51.267Z,90.90
2019-04-30T12:41:20.640Z,90.70
2019-04-30T12:43:49.064Z,90.40
2019-04-30T12:46:19.038Z,90.10
2019-04-30T12:48:55.483Z,88.90
2019-04-30T12:51:28.636Z,87.60
2019-04-30T12:54:15.144Z,86.70
2019-04-30T12:56:57.375Z,86.60
2019-04-30T12:59:25.816Z,85.80
2019-04-30T13:01:54.254Z,85.50
2019-04-30T13:04:22.673Z,85.80
2019-04-30T13:06:51.744Z,85.40
2019-04-30T13:09:21.440Z,86.10
2019-04-30T13:11:50.923Z,86.10
2019-04-30T13:14:20.801Z,85.00
2019-04-30T13:16:49.700Z,83.00
2019-04-30T13:19:18.146Z,81.90
2019-04-30T13:21:46.571Z,81.20
2019-04-30T13:24:15.238Z,81.00
2019-04-30T13:26:43.799Z,80.30
2019-04-30T13:29:13.881Z,79.50
2019-04-30T13:31:42.313Z,78.40
2019-04-30T13:37:21.142Z,76.90
2019-04-30T13:39:57.233Z,74.80
2019-04-30T13:42:33.425Z,74.40
2019-04-30T13:45:01.865Z,75.00
2019-04-30T13:47:30.299Z,74.70
2019-04-30T13:49:59.394Z,74.60
2019-04-30T13:52:28.871Z,74.10
2019-04-30T13:54:58.198Z,73.60
2019-04-30T13:57:26.626Z,74.30
2019-04-30T13:59:55.075Z,76.40
2019-04-30T14:02:23.493Z,74.40
2019-04-30T14:04:56.333Z,67.30
2019-04-30T14:07:42.945Z,65.90
2019-04-30T14:10:12.079Z,65.60
2019-04-30T14:12:42.146Z,67.80
2019-04-30T14:15:11.326Z,65.40
2019-04-30T14:17:40.183Z,59.40
2019-04-30T14:20:09.294Z,57.90
2019-04-30T14:22:37.734Z,58.10
2019-04-30T14:25:07.485Z,57.20
2019-04-30T14:27:39.595Z,55.40
2019-04-30T14:30:09.192Z,56.50
2019-04-30T14:32:56.890Z,56.20
2019-04-30T14:35:25.310Z,53.20
2019-04-30T14:37:53.757Z,47.70
2019-04-30T14:40:22.721Z,43.30
2019-04-30T14:43:00.049Z,37.70
2019-04-30T14:45:47.610Z,37.90
2019-04-30T14:48:20.724Z,39.70
2019-04-30T14:51:00.661Z,38.30
2019-04-30T14:53:42.907Z,37.30
2019-04-30T14:56:19.671Z,35.60
2019-04-30T14:58:52.935Z,33.60
2019-04-30T15:01:37.763Z,34.70
2019-04-30T15:04:06.261Z,36.30
2019-04-30T15:06:34.695Z,36.40
2019-04-30T15:09:05.340Z,36.50
2019-04-30T15:11:34.219Z,34.10
2019-04-30T15:14:02.707Z,32.00
2019-04-30T15:16:31.147Z,31.30
2019-04-30T15:18:59.591Z,31.20
2019-04-30T15:21:28.052Z,31.30
2019-04-30T15:24:03.753Z,30.20
2019-04-30T15:26:32.167Z,28.70
2019-04-30T15:29:00.612Z,29.60
2019-04-30T15:31:29.648Z,28.90
2019-04-30T15:34:02.846Z,29.20
2019-04-30T15:36:30.252Z,30.30
2019-04-30T15:39:00.396Z,30.00
2019-04-30T15:41:29.304Z,29.90
2019-04-30T15:43:57.744Z,28.80
2019-04-30T15:46:26.183Z,28.70
2019-04-30T15:48:54.624Z,28.50
2019-04-30T15:51:23.472Z,28.40
2019-04-30T15:53:51.918Z,27.80
2019-04-30T15:56:20.341Z,27.70
2019-04-30T15:59:08.886Z,28.10
2019-04-30T16:01:37.788Z,28.90
2019-04-30T16:04:10.102Z,30.00
2019-04-30T16:06:38.539Z,31.10
2019-04-30T16:09:10.545Z,32.50
2019-04-30T16:11:43.897Z,33.50
2019-04-30T16:14:14.045Z,34.60
2019-04-30T16:16:44.130Z,35.40
2019-04-30T16:19:31.889Z,36.60
2019-04-30T16:22:00.329Z,37.50
2019-04-30T16:24:28.875Z,39.00
2019-04-30T16:26:59.162Z,39.70
2019-04-30T16:29:27.505Z,39.90
2019-04-30T16:31:55.934Z,40.20
2019-04-30T16:34:24.393Z,40.90
2019-04-30T16:36:52.886Z,41.20
2019-04-30T16:39:21.317Z,41.70
2019-04-30T16:41:49.879Z,42.30
2019-04-30T16:44:37.989Z,43.00
2019-04-30T16:47:13.414Z,43.20
2019-04-30T16:49:36.570Z,43.50
2019-04-30T16:52:05.006Z,44.00
2019-04-30T16:54:33.430Z,43.50
2019-04-30T16:57:06.489Z,43.70
2019-04-30T16:59:38.792Z,44.00
2019-04-30T17:02:09.214Z,44.00
2019-04-30T17:04:53.882Z,44.20
2019-04-30T17:07:33.214Z,44.30
2019-04-30T17:10:12.355Z,43.80
2019-04-30T17:13:00.768Z,43.20
2019-04-30T17:15:33.626Z,43.30
2019-04-30T17:18:03.059Z,43.90
2019-04-30T17:20:31.647Z,44.10
2019-04-30T17:23:00.079Z,44.70
2019-04-30T17:25:28.863Z,45.10
2019-04-30T17:28:01.153Z,45.40
2019-04-30T17:30:29.234Z,45.60
2019-04-30T17:32:59.578Z,46.00
2019-04-30T17:35:28.855Z,45.90
2019-04-30T17:37:57.531Z,45.50
2019-04-30T17:40:33.507Z,45.70
2019-04-30T17:43:01.939Z,45.80
2019-04-30T17:45:30.395Z,46.30
2019-04-30T17:47:58.823Z,47.50
2019-04-30T17:50:27.311Z,47.30
2019-04-30T17:52:55.787Z,47.60
2019-04-30T17:55:24.203Z,48.30
2019-04-30T17:57:54.983Z,48.90
2019-04-30T18:00:23.496Z,49.10
2019-04-30T18:02:52.017Z,49.20
2019-04-30T18:05:20.565Z,49.60
2019-04-30T18:07:49.755Z,50.00
2019-04-30T18:10:20.493Z,50.50
2019-04-30T18:12:48.910Z,50.80
2019-04-30T18:15:21.909Z,51.30
2019-04-30T18:17:54.706Z,51.90
2019-04-30T18:20:24.829Z,52.00
2019-04-30T18:22:54.974Z,52.40
2019-04-30T18:25:47.165Z,52.60
2019-04-30T18:28:15.586Z,53.00
2019-04-30T18:30:44.118Z,53.50
2019-04-30T18:33:12.550Z,54.10
2019-04-30T18:35:41.034Z,54.70
2019-04-30T18:38:30.693Z,54.90
2019-04-30T18:41:11.838Z,55.30
2019-04-30T18:43:40.639Z,55.70
2019-04-30T18:46:10.817Z,56.00
2019-04-30T18:48:39.563Z,56.30
2019-04-30T18:51:23.460Z,56.70
2019-04-30T18:53:39.744Z,57.00
2019-04-30T18:56:13.943Z,57.30
2019-04-30T18:58:42.281Z,57.50
2019-04-30T19:01:09.402Z,57.90
2019-04-30T19:03:39.125Z,58.50
2019-04-30T19:06:22.269Z,58.90
2019-04-30T19:08:41.180Z,59.40
2019-04-30T19:11:11.247Z,59.80
2019-04-30T19:13:41.332Z,60.00
2019-04-30T19:16:21.820Z,60.70
2019-04-30T19:18:43.259Z,61.10
2019-04-30T19:21:11.968Z,61.50
2019-04-30T19:23:40.591Z,62.10
2019-04-30T19:26:09.031Z,62.40
2019-04-30T19:28:38.693Z,62.80
2019-04-30T19:31:11.322Z,63.40
2019-04-30T19:33:38.945Z,64.00
2019-04-30T19:36:09.650Z,64.60
2019-04-30T19:38:37.702Z,65.20
2019-04-30T19:41:06.125Z,66.00
2019-04-30T19:43:34.565Z,66.40
2019-04-30T19:46:02.994Z,67.10
2019-04-30T19:48:31.447Z,67.70
2019-04-30T19:50:59.880Z,68.20
2019-04-30T19:53:30.226Z,68.50
2019-04-30T19:55:58.544Z,69.10
2019-04-30T19:58:45.734Z,69.60
2019-04-30T20:00:57.125Z,69.90
2019-04-30T20:03:25.568Z,70.40
2019-04-30T20:05:54.194Z,71.00
2019-04-30T20:08:23.041Z,71.50
2019-04-30T20:10:51.505Z,72.10
2019-04-30T20:13:32.950Z,72.40
2019-04-30T20:15:50.093Z,73.00
2019-04-30T20:18:19.025Z,73.80
2019-04-30T20:20:51.780Z,74.30
2019-04-30T20:23:19.525Z,74.70
2019-04-30T20:25:47.944Z,75.10
2019-04-30T20:28:16.381Z,75.70
2019-04-30T20:31:04.225Z,76.00
2019-04-30T20:33:32.661Z,76.30
2019-04-30T20:36:01.081Z,76.90
2019-04-30T20:38:39.821Z,77.30
2019-04-30T20:41:09.909Z,77.90
2019-04-30T20:43:39.503Z,78.30
2019-04-30T20:46:08.679Z,78.70
2019-04-30T20:48:39.354Z,79.10
2019-04-30T20:51:09.167Z,79.50
2019-04-30T20:53:39.117Z,79.90
2019-04-30T20:56:09.227Z,80.60
2019-04-30T20:58:40.520Z,81.00
2019-04-30T21:01:09.625Z,81.50
2019-04-30T21:03:39.622Z,81.80
2019-04-30T21:06:08.791Z,82.30
2019-04-30T21:08:37.561Z,82.60
2019-04-30T21:11:05.985Z,83.20
2019-04-30T21:13:34.418Z,83.50
2019-04-30T21:16:02.870Z,84.10
2019-04-30T21:18:32.581Z,84.60
2019-04-30T21:21:01.190Z,85.20
2019-04-30T21:23:29.623Z,85.40
2019-04-30T21:25:58.903Z,85.90
2019-04-30T21:28:29.546Z,86.20
2019-04-30T21:30:59.496Z,86.90
2019-04-30T21:33:41.794Z,87.30
2019-04-30T21:36:11.935Z,87.90
2019-04-30T21:38:40.479Z,88.20
2019-04-30T21:41:09.959Z,88.60
2019-04-30T21:43:38.608Z,89.10
2019-04-30T21:46:09.331Z,89.50
2019-04-30T21:48:38.828Z,90.00
2019-04-30T21:51:09.224Z,90.10
2019-04-30T21:53:39.384Z,90.30
2019-04-30T21:56:07.674Z,90.60
2019-04-30T21:58:36.091Z,90.70
2019-04-30T22:01:09.539Z,90.90
2019-04-30T22:03:39.452Z,91.20
2019-04-30T22:06:08.462Z,91.30
2019-04-30T22:08:38.841Z,91.50
2019-04-30T22:11:09.600Z,91.70
2019-04-30T22:13:57.003Z,91.80
2019-04-30T22:16:25.451Z,91.80
2019-04-30T22:18:53.871Z,92.00
2019-04-30T22:21:22.387Z,92.10
2019-04-30T22:23:50.904Z,92.20
2019-04-30T22:26:19.339Z,92.40
2019-04-30T22:28:49.356Z,92.60
2019-04-30T22:31:19.756Z,92.70
2019-04-30T22:33:49.088Z,92.80
2019-04-30T22:36:21.974Z,93.00
2019-04-30T22:38:52.033Z,93.10
2019-04-30T22:41:22.212Z,93.20
2019-04-30T22:43:50.636Z,93.40
2019-04-30T22:46:19.472Z,93.60
2019-04-30T22:48:48.038Z,93.70
2019-04-30T22:51:16.468Z,93.90
2019-04-30T22:53:44.892Z,94.00
2019-04-30T22:56:16.216Z,94.10
2019-04-30T22:58:44.649Z,94.10
2019-04-30T23:01:31.201Z,94.30
2019-04-30T23:04:01.284Z,94.50
2019-04-30T23:06:29.724Z,94.60
2019-04-30T23:08:58.146Z,94.80
2019-04-30T23:11:26.641Z,94.90
2019-04-30T23:13:55.085Z,95.00
2019-04-30T23:16:23.504Z,95.20
2019-04-30T23:18:51.937Z,95.20
2019-04-30T23:21:20.365Z,95.20
2019-04-30T23:23:48.789Z,95.20
2019-04-30T23:26:17.253Z,95.40
2019-04-30T23:28:45.706Z,95.90
2019-04-30T23:31:14.131Z,95.60
2019-04-30T23:33:42.693Z,95.80
2019-04-30T23:36:11.141Z,95.90
2019-04-30T23:38:39.661Z,96.00
2019-04-30T23:41:08.106Z,96.00
2019-04-30T23:43:36.566Z,96.10
2019-04-30T23:46:05.009Z,96.10
2019-04-30T23:48:33.453Z,96.20
2019-04-30T23:51:01.901Z,96.30
2019-04-30T23:53:30.325Z,96.30
2019-04-30T23:55:58.781Z,96.30
2019-04-30T23:58:27.222Z,96.30
